Time;durP1;ratioP1;P1;durP2;ratioP2;P2;SDS_P1;SDS_P2;PMS_P1;PMS_P2;Temp;Humidity;BMP_temperature;BMP_pressure;BME280_temperature;BME280_humidity;BME280_pressure;Samples;Min_cycle;Max_cycle;Signal;HPM_P1;HPM_P2
2021/01/13 00:00:57;;;;;;;11.50;8.80;;;2.10;99.90;;;;;;5050896;28;20206;-89
2021/01/13 00:03:23;;;;;;;13.83;7.67;;;2.20;99.90;;;;;;5050572;28;20471;-89
2021/01/13 00:05:49;;;;;;;14.90;7.77;;;2.20;99.90;;;;;;5050438;28;20438;-89
2021/01/13 00:08:15;;;;;;;9.80;7.50;;;2.30;99.90;;;;;;5050716;28;20947;-90
2021/01/13 00:10:42;;;;;;;11.00;7.50;;;2.40;99.90;;;;;;5048770;28;20443;-88
2021/01/13 00:13:09;;;;;;;10.23;6.90;;;2.40;99.90;;;;;;5049277;28;20486;-89
2021/01/13 00:15:35;;;;;;;12.50;7.77;;;2.40;99.90;;;;;;5050622;28;20451;-89
2021/01/13 00:18:01;;;;;;;8.27;7.37;;;2.50;99.90;;;;;;5050540;28;20452;-89
2021/01/13 00:20:27;;;;;;;10.90;7.60;;;2.50;99.90;;;;;;5049081;28;20505;-90
2021/01/13 00:22:53;;;;;;;8.83;7.97;;;2.50;99.90;;;;;;5050796;28;20501;-90
2021/01/13 00:25:20;;;;;;;11.50;7.93;;;2.50;99.90;;;;;;5050866;28;20441;-89
2021/01/13 00:27:47;;;;;;;9.10;8.00;;;2.50;99.90;;;;;;5050083;28;20506;-89
2021/01/13 00:30:14;;;;;;;10.03;7.67;;;2.40;99.90;;;;;;5050664;28;20443;-90
2021/01/13 00:32:40;;;;;;;10.20;6.67;;;2.50;99.90;;;;;;5050363;28;20460;-89
2021/01/13 00:35:08;;;;;;;14.27;7.50;;;2.50;99.90;;;;;;5050253;28;20928;-89
2021/01/13 00:37:35;;;;;;;10.32;7.20;;;2.40;99.90;;;;;;5050510;28;20196;-89
2021/01/13 00:40:03;;;;;;;7.90;6.43;;;2.40;99.90;;;;;;5050412;28;20251;-89
2021/01/13 00:42:29;;;;;;;9.37;6.77;;;2.50;99.90;;;;;;5049008;28;20443;-89
2021/01/13 00:44:56;;;;;;;10.63;6.70;;;2.50;99.90;;;;;;5050359;28;20467;-89
2021/01/13 00:47:22;;;;;;;12.30;7.13;;;2.60;99.90;;;;;;5050400;28;20501;-89
2021/01/13 00:49:48;;;;;;;8.37;6.00;;;2.70;99.90;;;;;;5050949;28;20435;-90
2021/01/13 00:52:14;;;;;;;9.23;6.27;;;2.70;99.90;;;;;;5050460;28;20959;-89
2021/01/13 00:54:40;;;;;;;10.77;6.10;;;2.70;99.90;;;;;;5050263;28;20471;-89
2021/01/13 00:57:08;;;;;;;7.20;5.20;;;2.70;99.90;;;;;;5050583;28;20455;-89
2021/01/13 00:59:34;;;;;;;8.43;5.97;;;2.70;99.90;;;;;;5050572;28;20476;-90
2021/01/13 01:02:02;;;;;;;9.20;5.70;;;2.70;99.90;;;;;;5050212;28;20452;-90
2021/01/13 01:04:28;;;;;;;7.53;5.20;;;2.80;99.90;;;;;;5048635;28;20451;-89
2021/01/13 01:06:54;;;;;;;8.93;5.70;;;2.80;99.90;;;;;;5050081;28;20465;-90
2021/01/13 01:09:20;;;;;;;7.40;4.50;;;2.90;99.90;;;;;;5050535;28;20443;-89
2021/01/13 01:11:47;;;;;;;5.50;4.47;;;2.90;99.90;;;;;;5050215;28;20436;-89
2021/01/13 01:14:13;;;;;;;5.33;4.10;;;2.90;99.90;;;;;;5050429;28;20463;-89
2021/01/13 01:16:42;;;;;;;9.10;4.13;;;3.00;99.90;;;;;;5050105;28;20452;-90
2021/01/13 01:19:10;;;;;;;7.27;4.00;;;3.00;99.90;;;;;;5050144;28;20543;-89
2021/01/13 01:21:38;;;;;;;8.23;5.00;;;3.00;99.90;;;;;;5050251;28;20454;-89
2021/01/13 01:24:06;;;;;;;8.77;3.73;;;3.00;99.90;;;;;;5050099;28;20468;-89
2021/01/13 01:26:32;;;;;;;5.83;4.00;;;3.10;99.90;;;;;;5049885;28;20451;-90
2021/01/13 01:28:58;;;;;;;4.13;3.27;;;3.10;99.90;;;;;;5048469;28;20513;-89
2021/01/13 01:31:25;;;;;;;5.33;3.63;;;3.10;99.90;;;;;;5050248;28;20477;-89
2021/01/13 01:33:51;;;;;;;6.00;3.83;;;3.10;99.90;;;;;;5050015;28;20453;-90
2021/01/13 01:36:18;;;;;;;6.57;3.80;;;3.10;99.90;;;;;;5049809;28;20447;-89
2021/01/13 01:38:44;;;;;;;6.27;4.13;;;3.10;99.90;;;;;;5050011;28;20540;-89
2021/01/13 01:41:15;;;;;;;6.10;3.30;;;3.20;99.90;;;;;;5052229;28;20826;-89
2021/01/13 01:43:43;;;;;;;9.90;3.73;;;3.20;99.90;;;;;;5053333;28;20467;-89
2021/01/13 01:46:11;;;;;;;6.60;3.13;;;3.20;99.90;;;;;;5053541;28;20446;-90
2021/01/13 01:48:47;;;;;;;5.53;2.97;;;3.20;99.90;;;;;;5054198;28;20470;-89
2021/01/13 01:51:20;;;;;;;9.60;4.63;;;3.30;99.90;;;;;;5056088;28;20448;-90
2021/01/13 01:54:07;;;;;;;4.90;2.97;;;3.30;99.90;;;;;;5066552;28;20486;-89
2021/01/13 01:56:37;;;;;;;5.20;2.67;;;3.30;99.90;;;;;;5063542;28;20440;-89
2021/01/13 01:59:05;;;;;;;3.03;2.73;;;3.30;99.90;;;;;;5053150;28;20996;-89
2021/01/13 02:01:34;;;;;;;6.50;3.60;;;3.30;99.90;;;;;;5053534;28;20449;-88
2021/01/13 02:04:07;;;;;;;6.13;3.53;;;3.30;99.90;;;;;;5051348;28;20464;-88
2021/01/13 02:06:38;;;;;;;4.33;3.00;;;3.30;99.90;;;;;;5051812;28;20501;-88
2021/01/13 02:09:05;;;;;;;9.07;3.80;;;3.30;99.90;;;;;;5051971;28;20448;-89
2021/01/13 02:11:33;;;;;;;9.13;3.70;;;3.30;99.90;;;;;;5053341;28;20497;-89
2021/01/13 02:14:00;;;;;;;4.67;3.70;;;3.30;99.90;;;;;;5052874;28;20526;-89
2021/01/13 02:16:26;;;;;;;6.70;3.97;;;3.30;99.90;;;;;;5052791;28;20949;-89
2021/01/13 02:18:53;;;;;;;5.50;3.57;;;3.40;99.90;;;;;;5052628;28;20992;-89
2021/01/13 02:21:21;;;;;;;6.00;3.20;;;3.40;99.90;;;;;;5053171;28;20443;-89
2021/01/13 02:23:49;;;;;;;8.17;3.30;;;3.40;99.90;;;;;;5051180;28;20460;-89
2021/01/13 02:27:03;;;;;;;4.73;3.13;;;3.40;99.90;;;;;;5050854;28;20501;-88
2021/01/13 02:29:37;;;;;;;5.23;3.13;;;3.40;99.90;;;;;;5050804;28;20756;-89
2021/01/13 02:32:15;;;;;;;7.43;3.10;;;3.40;99.90;;;;;;5051783;28;20451;-89
2021/01/13 02:34:57;;;;;;;6.77;3.03;;;3.40;99.90;;;;;;5051777;28;20455;-89
2021/01/13 02:37:41;;;;;;;7.67;3.50;;;3.30;99.90;;;;;;5052139;28;20437;-89
2021/01/13 02:40:10;;;;;;;7.33;2.90;;;3.40;99.90;;;;;;5051875;28;20494;-90
2021/01/13 02:42:41;;;;;;;5.23;2.90;;;3.40;99.90;;;;;;5052387;28;20437;-88
2021/01/13 02:45:11;;;;;;;4.17;3.23;;;3.40;99.90;;;;;;5052118;28;21022;-88
2021/01/13 02:48:14;;;;;;;7.70;2.60;;;3.50;99.90;;;;;;5052515;28;20452;-88
2021/01/13 02:50:46;;;;;;;4.33;2.80;;;3.50;99.90;;;;;;5024757;28;20432;-88
2021/01/13 02:53:47;;;;;;;5.60;2.70;;;3.40;99.90;;;;;;5052419;28;20478;-88
2021/01/13 02:56:34;;;;;;;4.13;2.93;;;3.40;99.90;;;;;;5050000;28;20427;-88
2021/01/13 02:59:08;;;;;;;5.27;3.07;;;3.50;99.90;;;;;;5050127;28;20510;-89
2021/01/13 03:01:39;;;;;;;5.33;3.90;;;3.40;99.90;;;;;;5050909;28;20441;-88
2021/01/13 03:04:06;;;;;;;5.10;3.00;;;3.40;99.90;;;;;;5052127;28;20561;-89
2021/01/13 03:06:36;;;;;;;6.17;2.90;;;3.40;99.90;;;;;;5051745;28;20448;-88
2021/01/13 03:09:05;;;;;;;3.80;2.93;;;3.50;99.90;;;;;;5050737;28;20448;-88
2021/01/13 03:11:32;;;;;;;4.37;2.97;;;3.50;99.90;;;;;;5050600;28;20447;-88
2021/01/13 03:14:09;;;;;;;3.57;3.27;;;3.50;99.90;;;;;;5051368;28;20471;-88
2021/01/13 03:16:40;;;;;;;3.23;2.93;;;3.40;99.90;;;;;;5050185;28;20448;-88
2021/01/13 03:19:16;;;;;;;3.60;2.77;;;3.40;99.90;;;;;;5051845;28;20491;-88
2021/01/13 03:21:52;;;;;;;3.70;3.30;;;3.40;99.90;;;;;;5051842;28;20516;-88
2021/01/13 03:24:28;;;;;;;9.10;3.00;;;3.50;99.90;;;;;;5050378;28;20462;-88
2021/01/13 03:26:56;;;;;;;4.97;3.20;;;3.40;99.90;;;;;;5051147;28;20486;-89
2021/01/13 03:29:24;;;;;;;5.30;3.00;;;3.50;99.90;;;;;;5051813;28;20440;-88
2021/01/13 03:32:06;;;;;;;5.57;2.80;;;3.50;99.90;;;;;;5051529;28;20452;-88
2021/01/13 03:34:35;;;;;;;5.73;5.13;;;3.50;99.90;;;;;;5049818;28;20560;-88
2021/01/13 03:37:10;;;;;;;3.23;2.47;;;3.50;99.90;;;;;;5051454;28;20442;-88
2021/01/13 03:39:38;;;;;;;4.67;3.07;;;3.50;99.90;;;;;;5048519;28;20482;-88
2021/01/13 03:42:10;;;;;;;4.53;2.93;;;3.60;99.90;;;;;;5051138;28;20453;-90
2021/01/13 03:44:38;;;;;;;5.77;3.20;;;3.50;99.90;;;;;;5050728;28;20454;-89
2021/01/13 03:47:45;;;;;;;6.33;3.60;;;3.50;99.90;;;;;;5051199;28;20451;-89
2021/01/13 03:50:17;;;;;;;5.90;3.27;;;3.40;99.90;;;;;;5051402;28;20519;-89
2021/01/13 03:53:01;;;;;;;9.43;2.80;;;3.40;99.90;;;;;;5051163;28;20436;-90
2021/01/13 03:55:29;;;;;;;7.10;3.50;;;3.40;99.90;;;;;;5050388;28;20452;-89
2021/01/13 03:58:24;;;;;;;7.57;4.47;;;3.50;99.90;;;;;;5051312;28;20485;-89
2021/01/13 04:01:01;;;;;;;5.40;4.53;;;3.50;99.90;;;;;;5050019;28;20557;-89
2021/01/13 04:03:30;;;;;;;4.47;3.43;;;3.50;99.90;;;;;;5051627;28;20471;-89
2021/01/13 04:06:07;;;;;;;9.03;4.10;;;3.50;99.90;;;;;;5053740;28;20444;-89
2021/01/13 04:08:35;;;;;;;3.63;3.30;;;3.50;99.90;;;;;;5070412;28;20447;-89
2021/01/13 04:11:04;;;;;;;3.10;2.80;;;3.40;99.90;;;;;;5052395;28;20937;-89
2021/01/13 04:13:42;;;;;;;6.20;3.40;;;3.50;99.90;;;;;;5050872;28;20463;-90
2021/01/13 04:16:10;;;;;;;7.50;3.70;;;3.40;99.90;;;;;;5049670;28;20499;-89
2021/01/13 04:18:39;;;;;;;4.50;3.10;;;3.40;99.90;;;;;;5050880;28;20451;-89
2021/01/13 04:21:08;;;;;;;4.53;3.97;;;3.40;99.90;;;;;;5051102;28;20455;-89
2021/01/13 04:23:35;;;;;;;6.00;3.37;;;3.40;99.90;;;;;;5050591;28;20452;-88
2021/01/13 04:26:02;;;;;;;6.80;3.93;;;3.40;99.90;;;;;;5048885;28;20440;-89
2021/01/13 04:28:29;;;;;;;3.83;3.27;;;3.40;99.90;;;;;;5050856;28;20817;-89
2021/01/13 04:30:55;;;;;;;9.23;3.10;;;3.40;99.90;;;;;;5050750;28;20451;-88
2021/01/13 04:33:22;;;;;;;6.83;3.90;;;3.40;99.90;;;;;;5050447;28;20562;-90
2021/01/13 04:35:50;;;;;;;5.27;3.90;;;3.30;99.90;;;;;;5050744;28;20439;-89
2021/01/13 04:38:21;;;;;;;4.13;3.73;;;3.30;99.90;;;;;;5049043;28;20436;-89
2021/01/13 04:40:51;;;;;;;5.00;3.87;;;3.20;99.90;;;;;;5050786;28;20510;-89
2021/01/13 04:43:23;;;;;;;4.13;3.73;;;3.20;99.90;;;;;;5048681;28;20475;-89
2021/01/13 04:45:51;;;;;;;10.13;5.07;;;3.20;99.90;;;;;;5048692;28;20475;-89
2021/01/13 04:48:18;;;;;;;6.07;4.63;;;3.30;99.90;;;;;;5048601;28;20887;-89
2021/01/13 04:50:46;;;;;;;7.03;4.17;;;3.20;99.90;;;;;;5050600;28;20940;-89
2021/01/13 04:53:15;;;;;;;8.80;3.60;;;3.20;99.90;;;;;;5050306;28;20454;-89
2021/01/13 04:55:45;;;;;;;8.90;3.77;;;3.00;99.90;;;;;;5050409;28;20550;-89
2021/01/13 04:58:44;;;;;;;4.90;4.40;;;3.00;99.90;;;;;;5050530;28;20442;-89
2021/01/13 05:01:53;;;;;;;6.60;4.53;;;2.90;99.90;;;;;;5049786;28;20429;-89
2021/01/13 05:04:59;;;;;;;4.33;3.93;;;2.90;99.90;;;;;;5049309;28;20475;-89
2021/01/13 05:07:38;;;;;;;6.60;4.17;;;2.90;99.90;;;;;;5050584;28;20927;-89
2021/01/13 05:10:08;;;;;;;4.70;3.80;;;2.90;99.90;;;;;;5049548;28;20443;-89
2021/01/13 05:12:50;;;;;;;5.80;4.27;;;2.90;99.90;;;;;;5048839;28;20933;-89
2021/01/13 05:15:19;;;;;;;7.23;4.77;;;3.00;99.90;;;;;;5052223;28;20522;-88
2021/01/13 05:17:59;;;;;;;9.60;4.30;;;3.10;99.90;;;;;;5054165;28;20787;-89
2021/01/13 05:20:27;;;;;;;6.37;4.20;;;3.10;99.90;;;;;;5053356;28;20481;-88
2021/01/13 05:22:54;;;;;;;6.00;4.07;;;3.10;99.90;;;;;;5053702;28;20913;-87
2021/01/13 05:25:46;;;;;;;8.20;4.50;;;3.10;99.90;;;;;;5052362;28;20944;-88
2021/01/13 05:28:15;;;;;;;6.87;4.17;;;3.10;99.90;;;;;;5053265;28;20479;-88
2021/01/13 05:30:44;;;;;;;9.07;5.03;;;3.10;99.90;;;;;;5053821;28;20440;-88
2021/01/13 05:33:13;;;;;;;7.57;4.90;;;3.00;99.90;;;;;;5053492;28;20530;-88
2021/01/13 05:35:42;;;;;;;4.83;3.77;;;3.10;99.90;;;;;;5053559;28;20520;-88
2021/01/13 05:38:14;;;;;;;7.40;4.20;;;3.00;99.90;;;;;;5053575;28;20511;-88
2021/01/13 05:40:47;;;;;;;12.37;4.10;;;2.90;99.90;;;;;;5053653;28;20855;-88
2021/01/13 05:43:14;;;;;;;6.35;3.80;;;2.90;99.90;;;;;;5053479;28;20538;-89
2021/01/13 05:45:42;;;;;;;9.43;5.13;;;2.80;99.90;;;;;;5053333;28;20204;-89
2021/01/13 05:48:23;;;;;;;5.00;4.30;;;2.80;99.90;;;;;;5053503;28;20501;-89
2021/01/13 05:50:55;;;;;;;6.00;4.40;;;2.70;99.90;;;;;;5051754;28;20191;-89
2021/01/13 05:53:24;;;;;;;6.90;4.00;;;2.70;99.90;;;;;;5052589;28;20536;-89
2021/01/13 05:55:53;;;;;;;4.80;3.97;;;2.70;99.90;;;;;;5051406;28;20450;-89
2021/01/13 05:58:26;;;;;;;5.95;4.03;;;2.70;99.90;;;;;;5051816;28;20445;-89
2021/01/13 06:00:56;;;;;;;9.50;6.73;;;2.60;99.90;;;;;;5051648;28;20724;-89
2021/01/13 06:03:25;;;;;;;7.50;4.13;;;2.50;99.90;;;;;;5053433;28;20455;-89
2021/01/13 06:05:56;;;;;;;5.68;3.88;;;2.50;99.90;;;;;;5051351;28;21070;-90
2021/01/13 06:08:27;;;;;;;7.43;4.00;;;2.50;99.90;;;;;;5052030;28;20205;-88
2021/01/13 06:10:59;;;;;;;5.70;4.90;;;2.40;99.90;;;;;;5051628;28;20825;-88
2021/01/13 06:13:34;;;;;;;8.93;4.53;;;2.30;99.90;;;;;;5052890;28;20986;-89
2021/01/13 06:16:03;;;;;;;8.17;4.00;;;2.30;99.90;;;;;;5053602;28;20493;-89
2021/01/13 06:18:31;;;;;;;7.43;4.10;;;2.20;99.90;;;;;;5055087;28;20427;-88
2021/01/13 06:20:58;;;;;;;5.33;3.90;;;2.10;99.90;;;;;;5066295;28;20478;-89
2021/01/13 06:23:28;;;;;;;5.35;4.10;;;2.00;99.90;;;;;;5065594;28;20987;-89
2021/01/13 06:25:55;;;;;;;5.20;4.47;;;1.90;99.90;;;;;;5051780;28;20291;-89
2021/01/13 06:28:28;;;;;;;6.57;4.10;;;1.90;99.90;;;;;;5053215;28;20433;-90
2021/01/13 06:31:08;;;;;;;8.65;3.75;;;1.90;99.90;;;;;;5051750;28;20752;-90
2021/01/13 06:33:39;;;;;;;8.30;4.60;;;2.00;99.90;;;;;;5051279;28;20220;-89
2021/01/13 06:36:29;;;;;;;13.52;4.63;;;2.00;99.90;;;;;;5050743;28;20458;-89
2021/01/13 06:38:58;;;;;;;7.13;5.00;;;1.90;99.90;;;;;;5051745;28;20231;-89
2021/01/13 06:41:25;;;;;;;5.07;3.67;;;1.90;99.90;;;;;;5052634;28;20301;-87
2021/01/13 06:44:04;;;;;;;8.25;4.22;;;1.80;99.90;;;;;;5052947;28;20271;-88
2021/01/13 06:46:32;;;;;;;5.90;4.10;;;1.70;99.90;;;;;;5050400;28;20199;-89
2021/01/13 06:49:12;;;;;;;5.78;4.40;;;1.60;99.90;;;;;;5052450;28;20607;-89
2021/01/13 06:51:41;;;;;;;10.90;4.70;;;1.60;99.90;;;;;;5051175;28;20207;-89
2021/01/13 06:54:08;;;;;;;5.30;4.80;;;1.60;99.90;;;;;;5052339;28;20231;-89
2021/01/13 06:56:37;;;;;;;6.40;4.30;;;1.60;99.90;;;;;;5050472;28;20803;-88
2021/01/13 06:59:04;;;;;;;8.60;4.53;;;1.60;99.90;;;;;;5049913;28;20207;-89
2021/01/13 07:01:31;;;;;;;7.05;4.85;;;1.60;99.90;;;;;;5052396;28;20196;-89
2021/01/13 07:03:58;;;;;;;12.27;5.10;;;1.60;99.90;;;;;;5052252;28;20237;-88
2021/01/13 07:06:25;;;;;;;7.18;4.90;;;1.50;99.90;;;;;;5051704;28;20282;-89
2021/01/13 07:08:52;;;;;;;10.65;7.28;;;1.50;99.90;;;;;;5052128;28;20687;-89
2021/01/13 07:11:19;;;;;;;8.73;5.00;;;1.50;99.90;;;;;;5050380;28;20195;-90
2021/01/13 07:13:50;;;;;;;10.82;5.25;;;1.50;99.90;;;;;;5051991;28;20210;-89
2021/01/13 07:16:25;;;;;;;7.20;5.30;;;1.50;99.90;;;;;;5051722;28;20627;-89
2021/01/13 07:18:51;;;;;;;9.63;5.88;;;1.50;99.90;;;;;;5050554;28;20240;-89
2021/01/13 07:21:17;;;;;;;11.57;5.80;;;1.50;99.90;;;;;;5043168;28;20219;-88
2021/01/13 07:26:24;;;;;;;8.68;5.75;;;1.50;99.90;;;;;;5207099;22;20716;-88
2021/01/13 07:28:51;;;;;;;10.40;5.57;;;1.50;99.90;;;;;;5034177;28;20213;-89
2021/01/13 07:31:28;;;;;;;10.00;7.13;;;1.40;99.90;;;;;;5033905;28;20208;-89
2021/01/13 07:34:05;;;;;;;8.25;5.88;;;1.50;99.90;;;;;;5034133;28;20228;-89
2021/01/13 07:36:32;;;;;;;13.45;5.60;;;1.50;99.90;;;;;;5033698;28;20179;-89
2021/01/13 07:39:04;;;;;;;12.77;6.45;;;1.50;99.90;;;;;;5033643;28;20238;-89
2021/01/13 07:41:59;;;;;;;11.25;6.88;;;1.50;99.90;;;;;;5033875;28;20195;-89
2021/01/13 07:44:39;;;;;;;14.82;7.25;;;1.50;99.90;;;;;;5033576;28;20220;-89
2021/01/13 07:47:26;;;;;;;14.40;7.55;;;1.60;99.90;;;;;;5033539;28;20192;-90
2021/01/13 07:50:07;;;;;;;8.93;6.38;;;1.60;99.90;;;;;;5033394;28;20275;-93
2021/01/13 07:52:41;;;;;;;17.85;7.00;;;1.70;99.90;;;;;;5033793;28;20188;-95
2021/01/13 07:55:16;;;;;;;10.10;6.93;;;1.70;99.90;;;;;;5030578;28;20199;-82
2021/01/13 07:57:53;;;;;;;11.17;5.90;;;1.80;99.90;;;;;;5029902;28;20497;-87
2021/01/13 08:00:27;;;;;;;8.57;5.97;;;1.90;99.90;;;;;;5029503;28;20475;-88
2021/01/13 08:03:29;;;;;;;10.60;6.65;;;1.90;99.90;;;;;;5029627;28;20195;-90
2021/01/13 08:06:27;;;;;;;11.33;6.60;;;2.00;99.90;;;;;;5029923;28;20192;-90
2021/01/13 08:09:13;;;;;;;14.07;8.45;;;2.10;99.90;;;;;;5031025;28;20430;-89
2021/01/13 08:12:09;;;;;;;15.00;8.10;;;2.20;99.90;;;;;;5030754;28;20192;-89
2021/01/13 08:15:23;;;;;;;11.37;7.73;;;2.20;99.90;;;;;;5028994;28;20541;-94
2021/01/13 08:18:24;;;;;;;7.63;6.83;;;2.30;99.90;;;;;;5010817;28;20443;-89
2021/01/13 08:21:13;;;;;;;9.13;6.77;;;2.20;99.90;;;;;;5027746;28;20474;-91
2021/01/13 08:23:47;;;;;;;9.98;6.80;;;2.30;99.90;;;;;;5029314;28;20485;-90
2021/01/13 08:26:14;;;;;;;8.53;5.90;;;2.30;99.90;;;;;;5029963;28;20216;-90
2021/01/13 08:28:42;;;;;;;8.37;7.40;;;2.40;99.90;;;;;;5031338;28;20439;-91
2021/01/13 08:31:09;;;;;;;9.10;5.97;;;2.60;99.90;;;;;;5031059;28;20447;-90
2021/01/13 08:33:37;;;;;;;7.43;5.70;;;2.80;99.90;;;;;;5033050;28;20449;-89
2021/01/13 08:36:12;;;;;;;9.93;4.80;;;2.90;99.90;;;;;;5036069;28;20436;-91
2021/01/13 08:38:38;;;;;;;8.60;5.33;;;3.00;99.90;;;;;;5052881;28;20500;-89
2021/01/13 08:41:25;;;;;;;9.53;4.60;;;3.10;99.90;;;;;;5028454;28;20474;-89
2021/01/13 08:44:03;;;;;;;7.70;4.63;;;3.30;99.90;;;;;;5031374;28;20444;-88
2021/01/13 08:46:54;;;;;;;5.80;5.20;;;3.40;99.90;;;;;;5029427;28;20452;-90
2021/01/13 08:49:25;;;;;;;7.60;4.63;;;3.50;99.90;;;;;;5030184;28;20444;-90
2021/01/13 08:52:16;;;;;;;5.57;3.83;;;3.60;99.90;;;;;;5033555;28;20451;-91
2021/01/13 08:54:44;;;;;;;7.53;4.30;;;3.80;99.90;;;;;;5028472;28;20468;-88
2021/01/13 08:57:12;;;;;;;9.03;4.07;;;3.80;99.90;;;;;;5033844;28;20456;-88
2021/01/13 08:59:43;;;;;;;6.40;4.10;;;3.90;99.90;;;;;;5030026;28;20487;-87
2021/01/13 09:02:13;;;;;;;7.30;4.53;;;3.90;99.90;;;;;;5034943;28;20428;-91
2021/01/13 09:04:47;;;;;;;5.80;4.00;;;4.00;99.90;;;;;;5033232;28;20461;-86
2021/01/13 09:07:14;;;;;;;5.63;4.73;;;4.70;99.90;;;;;;5034363;28;20445;-85
2021/01/13 09:09:44;;;;;;;6.53;5.00;;;4.90;99.90;;;;;;5033646;28;20494;-84
2021/01/13 09:12:38;;;;;;;9.53;6.13;;;4.80;99.90;;;;;;5033423;28;20965;-86
2021/01/13 09:15:19;;;;;;;9.10;4.13;;;5.20;99.90;;;;;;5032648;28;20531;-85
2021/01/13 09:17:53;;;;;;;7.07;4.70;;;5.10;99.90;;;;;;5033897;28;20425;-86
2021/01/13 09:20:22;;;;;;;9.97;4.00;;;5.00;99.90;;;;;;5031343;28;20993;-91
2021/01/13 09:22:52;;;;;;;7.77;4.07;;;5.00;99.90;;;;;;5031381;28;20961;-86
2021/01/13 09:25:20;;;;;;;6.17;4.30;;;5.10;99.90;;;;;;5031286;28;20449;-86
2021/01/13 09:27:49;;;;;;;5.43;4.00;;;5.00;99.90;;;;;;5034495;28;20443;-86
2021/01/13 09:30:35;;;;;;;4.50;3.83;;;5.30;99.90;;;;;;5033698;28;20449;-85
2021/01/13 09:33:04;;;;;;;7.83;4.63;;;5.40;99.90;;;;;;5031645;28;20934;-86
2021/01/13 09:35:32;;;;;;;5.27;3.33;;;5.20;99.90;;;;;;5031691;28;20441;-87
2021/01/13 09:38:00;;;;;;;7.60;3.57;;;5.00;99.90;;;;;;5033554;28;20503;-87
2021/01/13 09:40:50;;;;;;;4.43;3.60;;;5.00;99.90;;;;;;5033544;28;20829;-87
2021/01/13 09:43:28;;;;;;;11.40;4.50;;;4.90;99.90;;;;;;5033640;28;20510;-86
2021/01/13 09:45:57;;;;;;;6.67;3.20;;;4.80;99.90;;;;;;5031980;28;20444;-86
2021/01/13 09:48:24;;;;;;;4.50;3.43;;;4.80;99.90;;;;;;5033592;28;20426;-85
2021/01/13 09:50:59;;;;;;;6.53;3.60;;;4.80;99.90;;;;;;5031113;28;21232;-85
2021/01/13 09:53:30;;;;;;;8.43;3.53;;;4.70;99.90;;;;;;5032539;28;20459;-85
2021/01/13 09:56:10;;;;;;;4.63;3.47;;;4.60;99.90;;;;;;5033458;28;20453;-85
2021/01/13 09:58:40;;;;;;;6.80;4.10;;;4.60;99.90;;;;;;5029995;28;20516;-86
2021/01/13 10:01:13;;;;;;;8.30;3.70;;;4.60;99.90;;;;;;5031016;28;20480;-86
2021/01/13 10:03:40;;;;;;;6.23;3.80;;;4.60;99.90;;;;;;5031723;28;20469;-87
2021/01/13 10:06:15;;;;;;;5.73;3.57;;;4.70;99.90;;;;;;5033708;28;20448;-87
2021/01/13 10:08:42;;;;;;;4.43;3.10;;;4.80;99.90;;;;;;5031856;28;20452;-87
2021/01/13 10:11:10;;;;;;;7.53;2.90;;;4.70;99.90;;;;;;5033498;28;20473;-86
2021/01/13 10:13:40;;;;;;;6.77;3.10;;;4.70;99.90;;;;;;5030953;28;20469;-87
2021/01/13 10:16:07;;;;;;;5.07;2.80;;;4.70;99.90;;;;;;5031201;28;20448;-85
2021/01/13 10:18:34;;;;;;;4.27;2.50;;;4.80;99.90;;;;;;5030622;28;20430;-86
2021/01/13 10:21:02;;;;;;;6.47;3.63;;;4.90;99.90;;;;;;5033051;28;20477;-86
2021/01/13 10:23:30;;;;;;;5.60;3.10;;;4.90;99.90;;;;;;5031365;28;20469;-86
2021/01/13 10:26:05;;;;;;;5.83;3.50;;;4.80;99.90;;;;;;5032980;28;20444;-86
2021/01/13 10:28:31;;;;;;;5.97;2.63;;;4.80;99.90;;;;;;5032226;28;20444;-86
2021/01/13 10:30:59;;;;;;;6.20;3.27;;;5.10;99.90;;;;;;5032564;28;20434;-85
2021/01/13 10:33:50;;;;;;;7.23;2.70;;;5.30;99.90;;;;;;5031600;28;20997;-86
2021/01/13 10:36:34;;;;;;;5.37;3.67;;;5.40;99.90;;;;;;5031395;28;20819;-87
2021/01/13 10:39:01;;;;;;;6.63;2.87;;;5.50;99.90;;;;;;5032305;28;20448;-87
2021/01/13 10:41:29;;;;;;;10.70;3.90;;;5.50;99.90;;;;;;5031067;28;21028;-87
2021/01/13 10:44:01;;;;;;;5.60;3.60;;;5.50;99.90;;;;;;5032481;28;20461;-87
2021/01/13 10:46:41;;;;;;;4.33;2.50;;;5.50;99.90;;;;;;5031237;28;20504;-86
2021/01/13 10:49:11;;;;;;;4.30;3.67;;;5.50;99.90;;;;;;5032044;28;20461;-86
2021/01/13 10:51:38;;;;;;;7.07;5.03;;;5.50;99.90;;;;;;5028044;28;20437;-86
2021/01/13 10:54:05;;;;;;;5.50;3.83;;;5.40;99.90;;;;;;5032109;28;20551;-86
2021/01/13 10:56:42;;;;;;;11.30;3.70;;;5.80;99.90;;;;;;5029789;28;20472;-86
2021/01/13 10:59:14;;;;;;;3.93;3.30;;;6.20;99.90;;;;;;5032777;28;20453;-86
2021/01/13 11:01:48;;;;;;;4.83;2.97;;;6.40;99.90;;;;;;5030442;28;20507;-87
2021/01/13 11:04:42;;;;;;;9.70;3.20;;;6.50;99.90;;;;;;5032534;28;20473;-86
2021/01/13 11:07:11;;;;;;;6.00;2.93;;;6.20;99.90;;;;;;5031437;28;20445;-86
2021/01/13 11:09:39;;;;;;;5.03;2.93;;;6.30;99.90;;;;;;5031024;28;20449;-88
2021/01/13 11:12:07;;;;;;;4.90;3.70;;;6.40;99.90;;;;;;5031237;28;20442;-87
2021/01/13 11:14:43;;;;;;;5.13;2.80;;;6.40;99.90;;;;;;5032155;28;20499;-86
2021/01/13 11:17:12;;;;;;;3.50;2.30;;;6.30;99.90;;;;;;5031319;28;20456;-87
2021/01/13 11:19:40;;;;;;;8.57;2.70;;;6.40;99.90;;;;;;5030689;28;20453;-88
2021/01/13 11:22:07;;;;;;;4.23;3.13;;;6.60;99.90;;;;;;5030620;28;20450;-87
2021/01/13 11:24:36;;;;;;;3.53;2.30;;;6.80;99.90;;;;;;5031717;28;20483;-86
2021/01/13 11:27:06;;;;;;;7.10;3.10;;;6.60;99.90;;;;;;5031216;28;20816;-87
2021/01/13 11:29:35;;;;;;;3.43;2.77;;;6.50;99.90;;;;;;5032045;28;20495;-86
2021/01/13 11:32:03;;;;;;;4.00;2.53;;;6.50;99.90;;;;;;5031667;28;20442;-86
2021/01/13 11:34:30;;;;;;;5.40;2.80;;;6.50;99.90;;;;;;5030894;28;20465;-85
2021/01/13 11:37:41;;;;;;;5.40;2.80;;;6.80;99.90;;;;;;5029897;28;20518;-87
2021/01/13 11:40:24;;;;;;;6.00;3.07;;;6.90;99.90;;;;;;5027612;28;20495;-86
2021/01/13 11:50:13;;;;;;;12.73;3.10;;;7.00;99.90;;;;;;4932039;29;20797;-87
2021/01/13 11:52:42;;;;;;;3.23;2.50;;;7.20;99.90;;;;;;4957114;28;20443;-87
2021/01/13 11:55:10;;;;;;;6.80;3.00;;;7.10;99.90;;;;;;4997176;28;20522;-87
2021/01/13 11:57:36;;;;;;;8.20;2.67;;;6.70;99.30;;;;;;5022903;28;20444;-87
2021/01/13 12:00:15;;;;;;;10.10;3.17;;;7.00;99.90;;;;;;5029628;28;20477;-87
2021/01/13 12:02:50;;;;;;;6.10;2.40;;;7.40;99.40;;;;;;5030377;28;20524;-87
2021/01/13 12:05:26;;;;;;;10.20;2.20;;;7.10;98.50;;;;;;5030873;28;20474;-87
2021/01/13 12:07:57;;;;;;;4.60;2.07;;;7.00;98.60;;;;;;5030091;28;20437;-86
2021/01/13 12:10:29;;;;;;;5.40;3.03;;;7.10;98.40;;;;;;5029386;28;20502;-85
2021/01/13 12:13:12;;;;;;;6.77;2.77;;;7.70;98.10;;;;;;5029949;28;20476;-87
2021/01/13 12:15:56;;;;;;;3.47;2.30;;;7.80;96.40;;;;;;5028903;28;20445;-85
2021/01/13 12:18:24;;;;;;;6.27;2.67;;;7.70;96.40;;;;;;5029686;28;20918;-86
2021/01/13 12:20:53;;;;;;;3.40;1.70;;;7.80;96.80;;;;;;5028522;28;20476;-87
2021/01/13 12:23:23;;;;;;;2.83;1.37;;;7.40;96.40;;;;;;5028127;28;20519;-86
2021/01/13 12:25:50;;;;;;;8.80;2.30;;;7.50;96.70;;;;;;5029647;28;20449;-86
2021/01/13 12:28:17;;;;;;;3.33;1.60;;;7.40;96.60;;;;;;5031134;28;20528;-87
2021/01/13 12:30:57;;;;;;;10.53;3.70;;;7.30;96.20;;;;;;5030567;28;20441;-86
2021/01/13 12:33:23;;;;;;;7.47;1.87;;;7.10;96.90;;;;;;5029565;28;20461;-86
2021/01/13 12:35:49;;;;;;;7.93;1.93;;;7.00;96.60;;;;;;5028246;28;20445;-87
2021/01/13 12:38:17;;;;;;;8.17;2.03;;;6.90;96.80;;;;;;5030999;28;20434;-87
2021/01/13 12:40:43;;;;;;;5.40;2.83;;;6.90;97.10;;;;;;5030274;28;21012;-85
2021/01/13 12:43:14;;;;;;;17.43;2.10;;;7.00;97.60;;;;;;5030791;28;20465;-85
2021/01/13 12:45:41;;;;;;;11.40;6.40;;;6.90;96.90;;;;;;5029844;28;20965;-86
2021/01/13 12:48:08;;;;;;;7.63;2.10;;;6.90;97.10;;;;;;5030776;28;20441;-88
2021/01/13 12:50:34;;;;;;;22.47;6.30;;;6.70;97.10;;;;;;5030296;28;20445;-82
2021/01/13 12:53:01;;;;;;;9.83;3.00;;;6.60;97.80;;;;;;5030782;28;20479;-81
2021/01/13 12:55:28;;;;;;;7.80;3.37;;;6.60;98.30;;;;;;5029886;28;20595;-81
2021/01/13 12:57:54;;;;;;;4.93;1.63;;;6.80;98.20;;;;;;5030428;28;20433;-85
2021/01/13 13:00:21;;;;;;;8.93;1.80;;;6.80;97.30;;;;;;5029675;28;20899;-86
2021/01/13 13:02:47;;;;;;;3.93;1.17;;;6.90;96.60;;;;;;5029775;28;20433;-85
2021/01/13 13:05:14;;;;;;;2.60;1.33;;;6.70;96.40;;;;;;5030147;28;20445;-87
2021/01/13 13:07:41;;;;;;;1.80;1.37;;;6.60;96.30;;;;;;5030566;28;20846;-86
2021/01/13 13:10:07;;;;;;;6.93;1.50;;;6.50;96.20;;;;;;5029538;28;20449;-85
2021/01/13 13:12:34;;;;;;;3.67;3.20;;;6.50;96.40;;;;;;5031444;28;20433;-86
2021/01/13 13:15:01;;;;;;;9.67;2.97;;;6.60;96.70;;;;;;5030319;28;20469;-85
2021/01/13 13:17:27;;;;;;;8.97;3.63;;;6.80;96.60;;;;;;5030426;28;20977;-85
2021/01/13 13:19:53;;;;;;;13.07;5.27;;;6.90;96.20;;;;;;5029555;28;20484;-86
2021/01/13 13:22:20;;;;;;;11.03;3.47;;;6.90;95.80;;;;;;5028468;28;20437;-86
2021/01/13 13:24:46;;;;;;;7.47;2.70;;;6.80;95.60;;;;;;5029487;28;20857;-85
2021/01/13 13:27:12;;;;;;;15.43;3.93;;;6.90;95.30;;;;;;5030266;28;20484;-85
2021/01/13 13:29:39;;;;;;;7.43;1.40;;;7.10;95.40;;;;;;5029955;28;20446;-86
2021/01/13 13:32:05;;;;;;;4.10;1.17;;;7.40;95.10;;;;;;5027997;28;20450;-86